createdAt,value
2023-03-24T07:24:16.918Z,15.91
2023-03-24T07:26:45.384Z,16.01
2023-03-24T07:29:13.475Z,16.11
2023-03-24T07:31:41.164Z,16.17
2023-03-24T07:34:09.213Z,16.19
2023-03-24T07:41:39.037Z,16.01
2023-03-24T07:44:06.585Z,16.04
2023-03-24T07:46:34.623Z,16.02
2023-03-24T07:49:11.874Z,16.04
2023-03-24T07:51:46.079Z,15.98
2023-03-24T07:54:13.534Z,15.92
2023-03-24T07:56:42.107Z,15.96
2023-03-24T07:59:09.940Z,15.91
2023-03-24T08:01:38.732Z,15.90
2023-03-24T08:04:06.998Z,15.93
2023-03-24T08:06:34.963Z,16.01
2023-03-24T08:09:02.508Z,16.01
2023-03-24T08:16:23.135Z,15.83
2023-03-24T08:18:50.845Z,15.80
2023-03-24T08:21:18.370Z,15.87
2023-03-24T08:23:45.823Z,15.95
2023-03-24T08:26:13.398Z,16.01
2023-03-24T08:28:41.693Z,16.03
2023-03-24T08:31:10.185Z,15.96
2023-03-24T08:33:37.693Z,15.95
2023-03-24T08:36:06.746Z,16.12
2023-03-24T08:38:34.454Z,16.01
2023-03-24T08:41:06.938Z,15.89
2023-03-24T08:43:37.749Z,15.90
2023-03-24T08:46:11.206Z,15.69
2023-03-24T08:48:41.300Z,15.58
2023-03-24T08:51:18.111Z,15.53
2023-03-24T08:53:45.629Z,15.49
2023-03-24T08:56:13.181Z,15.36
2023-03-24T08:58:40.657Z,15.27
2023-03-24T09:01:09.186Z,15.18
2023-03-24T09:03:39.692Z,15.22
2023-03-24T09:06:08.654Z,15.13
2023-03-24T09:08:36.363Z,15.07
2023-03-24T09:11:06.056Z,15.01
2023-03-24T09:13:33.930Z,15.02
2023-03-24T09:16:04.218Z,15.14
2023-03-24T09:18:31.920Z,14.87
2023-03-24T09:20:59.499Z,14.78
2023-03-24T09:23:29.252Z,14.87
2023-03-24T09:25:56.723Z,15.08
2023-03-24T09:28:24.762Z,14.97
2023-03-24T09:31:00.335Z,14.98
2023-03-24T09:33:30.536Z,15.02
2023-03-24T09:36:01.850Z,15.07
2023-03-24T09:38:30.311Z,15.30
2023-03-24T09:41:03.019Z,15.15
2023-03-24T09:44:36.573Z,15.18
2023-03-24T09:47:34.893Z,15.23
2023-03-24T09:50:42.034Z,15.27
2023-03-24T09:54:00.874Z,15.30
2023-03-24T09:56:30.232Z,15.32
2023-03-24T09:59:29.132Z,15.16
2023-03-24T10:01:57.970Z,15.06
2023-03-24T10:04:29.183Z,15.13
2023-03-24T10:07:16.386Z,15.28
2023-03-24T10:09:53.290Z,15.08
2023-03-24T10:12:45.487Z,15.04
2023-03-24T10:15:50.700Z,15.08
2023-03-24T10:19:24.368Z,14.98
2023-03-24T10:22:25.837Z,14.91
2023-03-24T10:25:32.894Z,14.60
2023-03-24T10:28:25.137Z,14.51
2023-03-24T10:31:00.494Z,14.29
2023-03-24T10:33:28.517Z,14.27
2023-03-24T10:36:21.533Z,14.04
2023-03-24T10:38:50.504Z,14.03
2023-03-24T10:41:29.187Z,14.21
2023-03-24T10:43:58.262Z,13.94
2023-03-24T10:46:31.488Z,13.91
2023-03-24T10:49:22.733Z,14.04
2023-03-24T10:52:03.713Z,13.85
2023-03-24T10:54:32.712Z,13.95
2023-03-24T10:57:06.321Z,13.96
2023-03-24T10:59:50.837Z,13.76
2023-03-24T11:02:29.688Z,13.83
2023-03-24T11:05:12.221Z,13.70
2023-03-24T11:07:49.019Z,13.79
2023-03-24T11:10:28.924Z,13.94
2023-03-24T11:12:57.903Z,13.82
2023-03-24T11:15:32.013Z,13.82
2023-03-24T11:18:18.232Z,13.79
2023-03-24T11:21:04.362Z,13.74
2023-03-24T11:23:45.836Z,13.69
2023-03-24T11:26:38.375Z,13.74
2023-03-24T11:29:20.961Z,13.74
2023-03-24T11:32:03.753Z,13.98
2023-03-24T11:34:42.276Z,14.01
2023-03-24T11:37:23.596Z,13.94
2023-03-24T11:40:14.700Z,14.10
2023-03-24T11:42:54.820Z,14.25
2023-03-24T11:45:46.152Z,14.43
2023-03-24T11:48:52.034Z,14.43
2023-03-24T11:51:42.791Z,14.36
2023-03-24T11:54:19.322Z,14.43
2023-03-24T11:57:15.406Z,14.55
2023-03-24T12:00:16.400Z,14.60
2023-03-24T12:02:57.679Z,14.40
2023-03-24T12:05:51.251Z,14.49
2023-03-24T12:09:07.466Z,14.34
2023-03-24T12:12:36.335Z,14.49
2023-03-24T12:15:52.316Z,14.59
2023-03-24T12:18:51.878Z,14.66
2023-03-24T12:21:52.841Z,14.48
2023-03-24T12:25:15.603Z,14.53
2023-03-24T12:28:36.278Z,14.42
2023-03-24T12:31:37.642Z,14.47
2023-03-24T12:34:48.639Z,14.29
2023-03-24T12:38:04.325Z,14.34
2023-03-24T12:41:19.157Z,14.13
2023-03-24T12:44:49.633Z,14.22
2023-03-24T12:48:20.453Z,14.34
2023-03-24T12:52:04.501Z,14.23
2023-03-24T12:55:33.307Z,14.11
2023-03-24T12:59:14.119Z,14.10
2023-03-24T13:02:22.629Z,14.08
2023-03-24T13:04:55.957Z,14.13
2023-03-24T13:07:28.628Z,13.92
2023-03-24T13:10:20.487Z,13.88
2023-03-24T13:13:20.376Z,13.85
2023-03-24T13:15:57.547Z,13.82
2023-03-24T13:18:50.512Z,13.85
2023-03-24T13:21:26.538Z,13.96
2023-03-24T13:24:12.850Z,14.10
2023-03-24T13:27:30.337Z,14.10
2023-03-24T13:30:38.433Z,14.17
2023-03-24T13:33:26.640Z,14.14
2023-03-24T13:36:46.931Z,14.30
2023-03-24T13:39:22.760Z,14.42
2023-03-24T13:41:55.471Z,14.34
2023-03-24T13:44:33.897Z,14.30
2023-03-24T13:47:19.499Z,14.30
2023-03-24T13:50:06.785Z,14.35
2023-03-24T13:52:49.890Z,14.30
2023-03-24T13:55:35.054Z,14.26
2023-03-24T13:58:26.264Z,14.27
2023-03-24T14:01:12.285Z,14.13
2023-03-24T14:03:46.468Z,14.03
2023-03-24T14:06:52.834Z,13.91
2023-03-24T14:09:33.114Z,13.90
2023-03-24T14:12:03.809Z,13.61
2023-03-24T14:14:59.705Z,13.59
2023-03-24T14:17:27.325Z,13.51
2023-03-24T14:20:05.052Z,13.75
2023-03-24T14:22:45.132Z,13.53
2023-03-24T14:25:15.397Z,13.39
2023-03-24T14:27:50.377Z,13.29
2023-03-24T14:30:28.404Z,13.35
2023-03-24T14:33:02.688Z,13.36
2023-03-24T14:35:46.662Z,13.31
2023-03-24T14:38:20.475Z,13.44
2023-03-24T14:41:00.134Z,13.20
2023-03-24T14:44:02.675Z,13.21
2023-03-24T14:46:48.167Z,13.15
2023-03-24T14:49:28.979Z,13.40
2023-03-24T14:52:22.801Z,13.36
2023-03-24T14:55:07.181Z,13.39
2023-03-24T14:58:17.899Z,13.37
2023-03-24T15:01:07.171Z,13.36
2023-03-24T15:04:08.426Z,13.49
2023-03-24T15:06:47.614Z,13.47
2023-03-24T15:09:19.265Z,13.61
2023-03-24T15:11:49.117Z,13.47
2023-03-24T15:14:26.566Z,13.38
2023-03-24T15:17:25.328Z,13.51
2023-03-24T15:19:55.152Z,13.43
2023-03-24T15:22:22.558Z,13.43
2023-03-24T15:24:52.384Z,13.46
2023-03-24T15:27:29.189Z,13.44
2023-03-24T15:30:00.229Z,13.59
2023-03-24T15:32:32.913Z,13.35
2023-03-24T15:35:07.784Z,13.18
2023-03-24T15:37:50.967Z,13.05
2023-03-24T15:40:29.777Z,12.53
2023-03-24T15:43:02.876Z,12.59
2023-03-24T15:45:55.285Z,12.74
2023-03-24T15:48:36.353Z,12.84
2023-03-24T15:51:12.858Z,12.89
2023-03-24T15:53:58.271Z,12.95
2023-03-24T15:56:32.186Z,12.95
2023-03-24T15:59:11.916Z,13.03
2023-03-24T16:01:44.096Z,13.19
2023-03-24T16:04:20.517Z,13.35
2023-03-24T16:06:54.416Z,13.44
2023-03-24T16:09:27.727Z,13.36
2023-03-24T16:11:55.425Z,13.40
2023-03-24T16:14:32.634Z,13.47
2023-03-24T16:17:05.934Z,13.55
2023-03-24T16:19:33.481Z,13.56
2023-03-24T16:22:00.980Z,13.33
2023-03-24T16:24:28.460Z,13.44
2023-03-24T16:26:56.227Z,13.37
2023-03-24T16:29:26.242Z,13.34
2023-03-24T16:31:57.350Z,13.33
2023-03-24T16:34:25.371Z,13.39
2023-03-24T16:36:54.854Z,13.47
2023-03-24T16:39:27.741Z,13.43
2023-03-24T16:41:56.826Z,13.41
2023-03-24T16:44:25.394Z,13.36
2023-03-24T16:46:55.648Z,13.46
2023-03-24T16:49:24.278Z,13.32
2023-03-24T16:51:53.210Z,13.25
2023-03-24T16:54:21.202Z,13.18
2023-03-24T16:56:49.139Z,13.20
2023-03-24T16:59:17.188Z,13.08
2023-03-24T17:01:47.372Z,13.29
2023-03-24T17:04:22.275Z,13.21
2023-03-24T17:06:54.408Z,13.31
2023-03-24T17:09:22.389Z,13.46
2023-03-24T17:11:59.032Z,13.47
2023-03-24T17:14:26.428Z,13.59
2023-03-24T17:16:54.032Z,13.43
2023-03-24T17:19:24.687Z,13.49
2023-03-24T17:22:06.644Z,13.50
2023-03-24T17:24:36.758Z,13.53
2023-03-24T17:27:18.935Z,13.31
2023-03-24T17:29:46.690Z,13.30
2023-03-24T17:32:14.137Z,13.38
2023-03-24T17:34:46.887Z,13.33
2023-03-24T17:37:14.374Z,13.41
2023-03-24T17:39:41.872Z,13.40
2023-03-24T17:42:09.505Z,13.51
2023-03-24T17:44:36.959Z,13.47
2023-03-24T17:47:04.695Z,13.56
2023-03-24T17:49:33.474Z,13.50
2023-03-24T17:52:00.911Z,13.61
2023-03-24T17:54:28.960Z,13.59
2023-03-24T17:56:56.526Z,13.48
2023-03-24T17:59:24.083Z,13.50
2023-03-24T18:01:51.662Z,13.39
2023-03-24T18:04:20.794Z,13.35
2023-03-24T18:06:48.250Z,13.26
2023-03-24T18:09:15.897Z,13.18
2023-03-24T18:11:43.613Z,13.14
2023-03-24T18:14:11.609Z,13.06
2023-03-24T18:16:40.357Z,13.09
2023-03-24T18:19:08.001Z,12.95
2023-03-24T18:21:35.890Z,13.01
2023-03-24T18:24:04.597Z,13.01
2023-03-24T18:26:33.636Z,13.03
2023-03-24T18:29:01.193Z,12.93
2023-03-24T18:31:32.057Z,13.04
2023-03-24T18:34:00.291Z,12.91
2023-03-24T18:36:29.137Z,12.99
2023-03-24T18:39:07.855Z,12.86
2023-03-24T18:41:37.449Z,12.85
2023-03-24T18:44:12.487Z,12.91
2023-03-24T18:46:40.395Z,12.87
2023-03-24T18:49:12.597Z,12.93
2023-03-24T18:51:40.194Z,12.90
2023-03-24T18:54:07.837Z,12.89
2023-03-24T18:56:35.360Z,12.81
2023-03-24T18:59:02.867Z,12.64
2023-03-24T19:01:33.134Z,12.67
2023-03-24T19:04:00.965Z,12.75
